Terminal Aerodrome Forecast
Issued by NWS

Home | Current Version | Previous Version | Text Only | Print | Product List | Glossary On
Versions: 1 2 3 4 5 6 7 8 9 10 11 12 13 14 15 16 17 18 19 20 21 22 23
000
FTUS43 KMPX 011135
TAFRWF
TAF
KRWF 011135Z 0112/0212 04013G22KT 2SM -SN BR SCT012 OVC025
     FM011400 02013G22KT 5SM -SN BR OVC020
     FM011600 01013G20KT P6SM SCT020 BKN060
     FM012100 36009KT P6SM SCT060 SCT200
     FM020300 VRB04KT P6SM BKN200=

USA.gov is the U.S. government's official web portal to all federal, state and local government web resources and services.